Date,TemperatureHighF,TemperatureAvgF,TemperatureLowF,DewpointHighF,DewpointAvgF,DewpointLowF,HumidityHigh,HumidityAvg,HumidityLow,PressureMaxIn,PressureMinIn,WindSpeedMaxMPH,WindSpeedAvgMPH,GustSpeedMaxMPH,PrecipitationSumIn
2013-8-1,85,72,65,72,58,47,80,63,49,29.99,29.87,10,0,10,0.01
2013-8-2,85,71,61,72,57,44,80,63,51,30.03,29.93,1,0,6,0.00
2013-8-3,83,72,65,70,57,45,80,60,48,30.03,29.94,9,0,9,0.00
2013-8-4,82,71,62,67,58,44,80,63,48,30.04,29.96,13,0,13,0.00
2013-8-5,79,68,59,70,56,42,80,65,49,30.07,29.95,7,0,7,0.22
2013-8-6,81,71,64,72,57,44,79,63,45,30.03,29.95,2,0,7,0.01
2013-8-7,72,69,68,56,48,43,61,47,39,30.05,29.99,5,0,5,0.41
2013-8-8,81,72,65,72,55,41,78,58,38,30.06,29.98,5,0,5,0.00
2013-8-9,85,73,66,74,57,40,79,57,36,30.07,29.99,8,0,8,0.06
2013-8-10,84,72,67,73,53,40,78,53,35,30.12,30.04,10,0,10,0.07
2013-8-11,87,73,66,73,54,39,78,53,33,30.15,30.03,8,0,8,0.00
2013-8-12,86,73,67,74,54,36,77,53,31,30.09,29.95,9,0,9,0.01
2013-8-13,83,72,67,72,53,33,78,54,27,29.98,29.80,11,0,11,0.05
2013-8-14,80,68,62,66,53,34,79,60,33,30.05,29.87,9,0,9,0.00
2013-8-15,70,63,58,60,55,51,80,77,68,30.14,30.04,9,0,9,0.00
2013-8-16,74,63,55,62,52,34,80,67,45,30.16,30.07,7,0,8,0.00
2013-8-17,65,62,58,58,50,36,80,67,39,30.18,30.11,7,0,7,0.14
2013-8-18,77,66,60,69,44,33,78,47,30,30.22,30.12,7,0,7,0.28
2013-8-19,74,67,63,66,42,30,78,43,27,30.19,30.07,3,0,3,0.90
2013-8-20,80,69,61,71,46,28,77,47,25,30.20,30.09,2,0,2,0.00
2013-8-21,76,69,63,68,44,24,77,45,19,30.24,30.10,0,0,0,0.02
2013-8-22,86,72,62,71,47,23,78,46,18,30.18,30.01,0,0,0,0.00
2013-8-23,82,69,62,71,43,20,77,44,16,30.09,29.97,9,0,9,0.02
2013-8-24,78,68,59,64,46,17,78,50,16,30.29,30.09,10,0,10,0.00
2013-8-25,78,64,52,63,47,20,78,57,25,30.39,30.28,6,0,6,0.00
2013-8-26,80,65,53,68,46,20,78,53,23,30.34,30.12,6,0,6,0.00
2013-8-27,84,69,58,70,44,16,77,46,17,30.18,30.01,8,0,8,0.00
2013-8-28,85,73,63,74,48,4,77,50,8,30.07,29.93,11,0,11,0.00
2013-8-29,86,77,70,74,68,42,78,74,40,29.96,29.86,15,0,15,0.00
2013-8-30,82,73,69,73,51,26,76,49,20,30.02,29.90,8,0,8,0.00
2013-8-31,85,72,66,73,40,2,76,40,7,29.96,29.85,3,0,7,0.00